Time;durP1;ratioP1;P1;durP2;ratioP2;P2;SDS_P1;SDS_P2;PMS_P1;PMS_P2;Temp;Humidity;BMP_temperature;BMP_pressure;BME280_temperature;BME280_humidity;BME280_pressure;Samples;Min_cycle;Max_cycle;Signal;HPM_P1;HPM_P2
2021/12/19 00:01:31;;;;;;;2.70;1.77;;;;;;;;;;5095822;28;20027;-69
2021/12/19 00:09:12;;;;;;;2.65;1.77;;;;;;;;;;5116658;28;20076;-73
2021/12/19 00:11:38;;;;;;;3.38;1.88;;;;;;;;;;5098742;28;20077;-72
2021/12/19 00:14:04;;;;;;;2.78;1.73;;;;;;;;;;5095935;28;20028;-72
2021/12/19 00:16:30;;;;;;;2.80;1.85;;;;;;;;;;5077625;28;20020;-73
2021/12/19 00:18:56;;;;;;;1.80;1.60;;;;;;;;;;5095748;28;20375;-73
2021/12/19 00:21:23;;;;;;;3.80;1.65;;;;;;;;;;5095827;28;20472;-73
2021/12/19 00:23:50;;;;;;;4.20;1.50;;;;;;;;;;5095565;28;20032;-71
2021/12/19 00:26:17;;;;;;;2.47;1.58;;;;;;;;;;5095696;28;20047;-71
2021/12/19 00:28:44;;;;;;;6.63;1.63;;;;;;;;;;5095361;28;20036;-71
2021/12/19 00:31:10;;;;;;;4.35;1.40;;;;;;;;;;5095338;28;20387;-72
2021/12/19 00:33:37;;;;;;;12.30;1.75;;;;;;;;;;5095180;28;20073;-71
2021/12/19 00:36:03;;;;;;;5.18;1.50;;;;;;;;;;5094797;28;20024;-71
2021/12/19 00:38:29;;;;;;;2.05;1.40;;;;;;;;;;5094804;28;20044;-71
2021/12/19 00:40:56;;;;;;;7.13;1.80;;;;;;;;;;5076774;28;20020;-72
2021/12/19 00:43:46;;;;;;;4.97;1.63;;;;;;;;;;5081118;28;20028;-71
2021/12/19 00:46:09;;;;;;;5.57;1.58;;;;;;;;;;5074229;28;20459;-73
2021/12/19 00:48:43;;;;;;;4.47;1.70;;;;;;;;;;5075196;28;20423;-72
2021/12/19 00:51:12;;;;;;;4.57;1.50;;;;;;;;;;5071885;28;20027;-74
2021/12/19 00:53:38;;;;;;;2.47;1.50;;;;;;;;;;5097087;28;20072;-73
2021/12/19 00:56:04;;;;;;;3.28;1.50;;;;;;;;;;5096971;28;20106;-71
2021/12/19 00:58:30;;;;;;;5.57;1.30;;;;;;;;;;5115300;28;20036;-69
2021/12/19 01:00:57;;;;;;;3.08;1.80;;;;;;;;;;5115249;28;20023;-74
2021/12/19 01:03:23;;;;;;;4.05;1.48;;;;;;;;;;5115168;28;20049;-75
2021/12/19 01:05:49;;;;;;;7.45;1.38;;;;;;;;;;5097112;28;20024;-74
2021/12/19 01:08:15;;;;;;;7.28;1.40;;;;;;;;;;5114903;28;20383;-71
2021/12/19 01:10:43;;;;;;;8.65;1.45;;;;;;;;;;5114873;28;20110;-69
2021/12/19 01:13:09;;;;;;;14.60;1.50;;;;;;;;;;5107410;28;20024;-70
2021/12/19 01:15:35;;;;;;;3.80;1.48;;;;;;;;;;5094321;28;20455;-70
2021/12/19 01:18:01;;;;;;;3.70;1.55;;;;;;;;;;5093903;28;20456;-71
2021/12/19 01:20:29;;;;;;;13.07;1.30;;;;;;;;;;5114433;28;20023;-68
2021/12/19 01:22:55;;;;;;;4.75;1.20;;;;;;;;;;5101825;28;20459;-68
2021/12/19 01:25:21;;;;;;;9.98;1.95;;;;;;;;;;5094256;28;20024;-70
2021/12/19 01:27:47;;;;;;;2.88;1.30;;;;;;;;;;5076194;28;20110;-70
2021/12/19 01:30:14;;;;;;;4.15;1.25;;;;;;;;;;5093478;28;20032;-72
2021/12/19 01:32:40;;;;;;;2.58;1.40;;;;;;;;;;5094016;28;20375;-70
2021/12/19 01:35:08;;;;;;;2.85;1.30;;;;;;;;;;5075792;28;20111;-68
2021/12/19 01:37:34;;;;;;;7.13;1.48;;;;;;;;;;5093982;28;20068;-69
2021/12/19 01:40:00;;;;;;;4.15;1.52;;;;;;;;;;5075709;28;20044;-71
2021/12/19 01:42:33;;;;;;;4.05;1.50;;;;;;;;;;5093844;28;20024;-71
2021/12/19 01:45:00;;;;;;;3.53;1.50;;;;;;;;;;5113530;28;20359;-72
2021/12/19 01:47:26;;;;;;;7.18;1.35;;;;;;;;;;5113570;28;20390;-71
2021/12/19 01:49:52;;;;;;;5.13;1.77;;;;;;;;;;5080355;28;20479;-71
2021/12/19 01:52:19;;;;;;;4.40;1.52;;;;;;;;;;5073290;28;20024;-70
2021/12/19 01:54:46;;;;;;;5.05;1.38;;;;;;;;;;5073339;28;20086;-71
2021/12/19 01:57:12;;;;;;;3.00;1.27;;;;;;;;;;5073266;28;20052;-68
2021/12/19 01:59:38;;;;;;;2.63;1.30;;;;;;;;;;5071837;28;20064;-72
2021/12/19 02:02:04;;;;;;;2.90;1.10;;;;;;;;;;5073001;28;20108;-70
2021/12/19 02:04:32;;;;;;;2.33;1.20;;;;;;;;;;5073121;28;20025;-71
2021/12/19 02:06:59;;;;;;;5.10;1.55;;;;;;;;;;5071907;28;20025;-71
2021/12/19 02:09:25;;;;;;;10.25;1.40;;;;;;;;;;5073353;28;20027;-72
2021/12/19 02:11:52;;;;;;;4.07;0.93;;;;;;;;;;5073397;28;20029;-71
2021/12/19 02:14:18;;;;;;;4.00;1.17;;;;;;;;;;5073146;28;20032;-72
2021/12/19 02:16:44;;;;;;;1.10;1.00;;;;;;;;;;5073080;28;20035;-69
2021/12/19 02:19:11;;;;;;;4.40;1.00;;;;;;;;;;5071511;28;20480;-70
2021/12/19 02:21:37;;;;;;;2.22;1.00;;;;;;;;;;5075192;28;20021;-73
2021/12/19 02:24:04;;;;;;;6.03;1.20;;;;;;;;;;5093644;28;20032;-74
2021/12/19 02:26:30;;;;;;;2.03;1.00;;;;;;;;;;5093812;28;20115;-71
2021/12/19 02:28:56;;;;;;;3.60;1.00;;;;;;;;;;5093211;28;20055;-73
2021/12/19 02:31:22;;;;;;;3.20;0.90;;;;;;;;;;5093245;28;20343;-71
2021/12/19 02:36:39;;;;;;;2.17;0.88;;;;;;;;;;5093565;28;20424;-72
2021/12/19 02:50:07;;;;;;;4.03;0.90;;;;;;;;;;5093174;28;20513;-67
2021/12/19 02:52:33;;;;;;;1.00;0.77;;;;;;;;;;5093066;28;20514;-70
2021/12/19 02:54:59;;;;;;;2.50;1.00;;;;;;;;;;5092896;28;20038;-70
2021/12/19 02:57:25;;;;;;;0.93;0.77;;;;;;;;;;5074688;28;20012;-69
2021/12/19 02:59:51;;;;;;;2.05;0.80;;;;;;;;;;5075143;28;20081;-70
2021/12/19 03:02:18;;;;;;;1.80;0.60;;;;;;;;;;5070953;28;20031;-69
2021/12/19 03:04:54;;;;;;;2.55;0.70;;;;;;;;;;5076593;28;20036;-71
2021/12/19 03:07:20;;;;;;;1.45;0.80;;;;;;;;;;5076838;28;20490;-71
2021/12/19 03:17:58;;;;;;;9.75;0.90;;;;;;;;;;5076800;28;20070;-74
2021/12/19 03:20:24;;;;;;;1.63;0.68;;;;;;;;;;5076767;28;20166;-73
2021/12/19 03:22:50;;;;;;;2.00;0.68;;;;;;;;;;5076410;28;20028;-70
2021/12/19 03:25:19;;;;;;;4.40;0.70;;;;;;;;;;5058852;28;20028;-72
2021/12/19 03:27:45;;;;;;;0.60;0.60;;;;;;;;;;5058604;28;20024;-73
2021/12/19 03:30:11;;;;;;;1.10;0.60;;;;;;;;;;5076436;28;20029;-74
2021/12/19 03:32:38;;;;;;;1.00;0.70;;;;;;;;;;5058572;28;20379;-75
2021/12/19 03:35:04;;;;;;;4.07;0.60;;;;;;;;;;5076432;28;20050;-75
2021/12/19 03:37:30;;;;;;;0.70;0.57;;;;;;;;;;5076660;28;20020;-74
2021/12/19 03:40:08;;;;;;;0.70;0.70;;;;;;;;;;5076175;28;20041;-70
2021/12/19 03:42:34;;;;;;;3.67;0.63;;;;;;;;;;5057977;28;20040;-70
2021/12/19 03:45:00;;;;;;;2.03;0.85;;;;;;;;;;5075943;28;20028;-73
2021/12/19 03:47:26;;;;;;;0.73;0.63;;;;;;;;;;5092679;28;20035;-71
2021/12/19 03:49:52;;;;;;;1.05;0.60;;;;;;;;;;5096299;28;20119;-68
2021/12/19 03:52:18;;;;;;;1.52;0.60;;;;;;;;;;5096174;28;20446;-74
2021/12/19 03:54:44;;;;;;;0.70;0.60;;;;;;;;;;5078142;28;20426;-73
2021/12/19 03:57:10;;;;;;;1.60;0.68;;;;;;;;;;5095999;28;20024;-74
2021/12/19 03:59:37;;;;;;;8.60;0.60;;;;;;;;;;5096684;28;20028;-75
2021/12/19 04:02:07;;;;;;;5.78;0.57;;;;;;;;;;5090715;28;20475;-72
2021/12/19 04:04:37;;;;;;;1.00;0.65;;;;;;;;;;5079044;28;20028;-70
2021/12/19 04:07:03;;;;;;;1.50;0.60;;;;;;;;;;5097099;28;20024;-69
2021/12/19 04:09:29;;;;;;;1.60;0.70;;;;;;;;;;5096009;28;20032;-71
2021/12/19 04:11:56;;;;;;;4.05;0.65;;;;;;;;;;5094916;28;20024;-70
2021/12/19 04:14:22;;;;;;;3.17;0.57;;;;;;;;;;5095833;28;20035;-70
2021/12/19 04:16:48;;;;;;;2.75;0.60;;;;;;;;;;5095777;28;20030;-72
2021/12/19 04:19:14;;;;;;;1.77;0.50;;;;;;;;;;5094837;28;20071;-72
2021/12/19 04:21:40;;;;;;;3.53;0.70;;;;;;;;;;5095639;28;20017;-71
2021/12/19 04:24:06;;;;;;;4.18;0.52;;;;;;;;;;5095672;28;20035;-71
2021/12/19 04:26:33;;;;;;;3.60;0.68;;;;;;;;;;5095874;28;20030;-69
2021/12/19 04:28:59;;;;;;;1.02;0.70;;;;;;;;;;5077294;28;20032;-73
2021/12/19 04:31:27;;;;;;;2.05;0.50;;;;;;;;;;5095671;28;20020;-73
2021/12/19 04:33:54;;;;;;;1.83;0.57;;;;;;;;;;5077179;28;20256;-72
2021/12/19 04:36:26;;;;;;;4.47;0.70;;;;;;;;;;5077031;28;20032;-70
2021/12/19 04:55:15;;;;;;;0.75;0.40;;;;;;;;;;5074915;28;20036;-73
2021/12/19 05:00:10;;;;;;;2.38;0.60;;;;;;;;;;5074780;28;20040;-67
2021/12/19 05:16:02;;;;;;;1.88;0.40;;;;;;;;;;5074235;28;20094;-72
2021/12/19 05:18:32;;;;;;;0.95;0.60;;;;;;;;;;5080861;28;20034;-68
2021/12/19 05:21:06;;;;;;;1.65;0.40;;;;;;;;;;5114791;28;20102;-70
2021/12/19 05:26:02;;;;;;;4.43;0.40;;;;;;;;;;5115243;28;20057;-74
2021/12/19 05:28:28;;;;;;;1.48;0.65;;;;;;;;;;5085656;28;20028;-74
2021/12/19 05:30:54;;;;;;;8.82;0.50;;;;;;;;;;5094512;28;20027;-74
2021/12/19 05:33:20;;;;;;;5.40;0.50;;;;;;;;;;5094269;28;20443;-72
2021/12/19 05:46:54;;;;;;;2.17;0.40;;;;;;;;;;5052774;28;20056;-74
2021/12/19 05:49:20;;;;;;;10.18;1.00;;;;;;;;;;5111195;28;20028;-69
2021/12/19 05:51:46;;;;;;;13.13;0.70;;;;;;;;;;5101121;28;20475;-71
2021/12/19 05:54:13;;;;;;;27.88;0.93;;;;;;;;;;5093746;28;20024;-66
2021/12/19 05:56:39;;;;;;;16.00;0.80;;;;;;;;;;5093385;28;20040;-66
2021/12/19 05:59:06;;;;;;;6.28;0.70;;;;;;;;;;5093238;28;20046;-68
2021/12/19 06:01:32;;;;;;;11.55;0.50;;;;;;;;;;5093307;28;20046;-67
2021/12/19 06:03:58;;;;;;;7.45;0.60;;;;;;;;;;5093936;28;20024;-65
2021/12/19 06:06:27;;;;;;;12.65;0.70;;;;;;;;;;5108041;28;20414;-67
2021/12/19 06:08:54;;;;;;;7.90;0.50;;;;;;;;;;5098168;28;20019;-67
2021/12/19 06:11:20;;;;;;;12.55;0.60;;;;;;;;;;5113577;28;20100;-66
2021/12/19 06:13:46;;;;;;;7.13;0.73;;;;;;;;;;5094928;28;20140;-67
2021/12/19 06:16:12;;;;;;;6.05;0.80;;;;;;;;;;5113487;28;20027;-63
2021/12/19 06:18:38;;;;;;;5.97;0.50;;;;;;;;;;5113377;28;20028;-66
2021/12/19 06:21:05;;;;;;;4.05;0.40;;;;;;;;;;5113152;28;20039;-69
2021/12/19 06:23:33;;;;;;;4.88;0.68;;;;;;;;;;5094075;28;20099;-69
2021/12/19 06:25:59;;;;;;;10.55;0.50;;;;;;;;;;5072569;28;20028;-69
2021/12/19 06:28:25;;;;;;;9.00;0.43;;;;;;;;;;5072754;28;20082;-66
2021/12/19 06:30:51;;;;;;;6.75;0.57;;;;;;;;;;5072864;28;20032;-67
2021/12/19 06:33:17;;;;;;;4.15;0.50;;;;;;;;;;5072564;28;20032;-67
2021/12/19 06:35:43;;;;;;;1.52;0.40;;;;;;;;;;5072712;28;20029;-67
2021/12/19 06:38:09;;;;;;;5.25;0.40;;;;;;;;;;5072307;28;20127;-68
2021/12/19 06:40:35;;;;;;;1.92;0.40;;;;;;;;;;5072537;28;20028;-68
2021/12/19 06:43:01;;;;;;;1.17;0.40;;;;;;;;;;5083183;28;20360;-68
2021/12/19 06:45:27;;;;;;;1.77;0.30;;;;;;;;;;5092834;28;20073;-69
2021/12/19 06:47:53;;;;;;;2.72;0.30;;;;;;;;;;5092805;28;20024;-67
2021/12/19 06:50:19;;;;;;;0.50;0.30;;;;;;;;;;5093261;28;20402;-68
2021/12/19 06:52:46;;;;;;;2.38;0.45;;;;;;;;;;5094793;28;20110;-68
2021/12/19 06:55:13;;;;;;;0.52;0.22;;;;;;;;;;5113181;28;20051;-68
2021/12/19 06:57:39;;;;;;;1.35;0.28;;;;;;;;;;5076953;28;20035;-68
2021/12/19 07:00:10;;;;;;;0.50;0.30;;;;;;;;;;5092507;28;20035;-68
2021/12/19 07:02:36;;;;;;;0.80;0.30;;;;;;;;;;5092976;28;20024;-67
2021/12/19 07:05:03;;;;;;;1.27;0.30;;;;;;;;;;5098059;28;20030;-68
2021/12/19 07:07:29;;;;;;;1.42;0.40;;;;;;;;;;5095454;28;20099;-68
2021/12/19 07:09:55;;;;;;;1.75;0.40;;;;;;;;;;5100690;28;20031;-67
2021/12/19 07:12:26;;;;;;;2.83;0.20;;;;;;;;;;5094541;28;20046;-67
2021/12/19 07:14:51;;;;;;;0.85;0.30;;;;;;;;;;5102768;28;20090;-65
2021/12/19 07:17:17;;;;;;;1.88;0.30;;;;;;;;;;5091066;28;20138;-69
2021/12/19 07:19:43;;;;;;;0.60;0.40;;;;;;;;;;5103523;28;20032;-68
2021/12/19 07:22:09;;;;;;;0.68;0.30;;;;;;;;;;5105506;28;20035;-65
2021/12/19 07:24:35;;;;;;;0.50;0.35;;;;;;;;;;5103033;28;20030;-66
2021/12/19 07:27:01;;;;;;;0.68;0.30;;;;;;;;;;5077783;28;20023;-66
2021/12/19 07:29:27;;;;;;;1.20;0.30;;;;;;;;;;5105189;28;20379;-66
2021/12/19 07:31:53;;;;;;;0.38;0.30;;;;;;;;;;5090639;28;20490;-66
2021/12/19 07:34:20;;;;;;;0.30;0.30;;;;;;;;;;5084484;28;20052;-66
2021/12/19 07:36:51;;;;;;;0.45;0.20;;;;;;;;;;5097853;28;20421;-65
2021/12/19 07:39:40;;;;;;;0.30;0.30;;;;;;;;;;5100943;28;20044;-66
2021/12/19 07:42:08;;;;;;;2.35;0.40;;;;;;;;;;5090098;28;20028;-66
2021/12/19 07:44:34;;;;;;;3.03;0.40;;;;;;;;;;5090247;28;20024;-67
2021/12/19 07:47:00;;;;;;;3.03;0.40;;;;;;;;;;5112041;28;20398;-69
2021/12/19 07:49:26;;;;;;;3.15;0.50;;;;;;;;;;5087558;28;20024;-69
2021/12/19 07:51:52;;;;;;;1.40;0.30;;;;;;;;;;5096535;28;20028;-67
2021/12/19 07:54:18;;;;;;;1.52;0.30;;;;;;;;;;5095838;28;20453;-68
2021/12/19 07:56:46;;;;;;;4.70;0.40;;;;;;;;;;5095507;28;20435;-66
2021/12/19 07:59:12;;;;;;;2.10;0.30;;;;;;;;;;5095422;28;20028;-69
2021/12/19 08:01:38;;;;;;;2.58;0.30;;;;;;;;;;5077419;28;20028;-70
2021/12/19 08:04:04;;;;;;;2.40;0.50;;;;;;;;;;5095500;28;20028;-68
2021/12/19 08:06:30;;;;;;;0.73;0.40;;;;;;;;;;5095198;28;20032;-66
2021/12/19 08:08:58;;;;;;;7.22;0.30;;;;;;;;;;5091590;28;20077;-66
2021/12/19 08:11:41;;;;;;;8.25;0.40;;;;;;;;;;5096561;28;20034;-67
2021/12/19 08:14:07;;;;;;;;;;;;;;;;;;5101559;28;20105;-68
2021/12/19 08:16:33;;;;;;;0.63;0.30;;;;;;;;;;5081707;28;19904;-67
2021/12/19 08:18:59;;;;;;;0.65;0.30;;;;;;;;;;5102867;28;20485;-67
2021/12/19 08:21:25;;;;;;;2.55;0.40;;;;;;;;;;5104516;28;20035;-68
2021/12/19 08:23:51;;;;;;;3.25;0.47;;;;;;;;;;5109959;28;20063;-68
2021/12/19 08:26:17;;;;;;;4.10;0.40;;;;;;;;;;5095031;28;20396;-68
2021/12/19 08:28:43;;;;;;;0.80;0.40;;;;;;;;;;5094921;28;20027;-67
2021/12/19 08:31:09;;;;;;;2.72;0.77;;;;;;;;;;5094781;28;20020;-68
2021/12/19 08:33:35;;;;;;;0.40;0.30;;;;;;;;;;5102637;28;20455;-68
2021/12/19 08:36:01;;;;;;;6.15;0.40;;;;;;;;;;5085524;28;20111;-67
2021/12/19 08:38:27;;;;;;;1.38;0.40;;;;;;;;;;5094405;28;20130;-67
2021/12/19 08:40:55;;;;;;;1.08;0.32;;;;;;;;;;5084824;28;20115;-67
2021/12/19 08:43:21;;;;;;;2.70;0.60;;;;;;;;;;5087634;28;20530;-68
2021/12/19 08:45:48;;;;;;;3.40;0.40;;;;;;;;;;5094408;28;20099;-68
2021/12/19 08:48:14;;;;;;;5.97;0.47;;;;;;;;;;5076200;28;20021;-67
2021/12/19 08:50:40;;;;;;;0.75;0.40;;;;;;;;;;5099787;28;20092;-69
2021/12/19 08:53:06;;;;;;;0.70;0.50;;;;;;;;;;5115588;27;20102;-67
2021/12/19 08:55:32;;;;;;;2.13;0.50;;;;;;;;;;5094484;28;20024;-68
2021/12/19 08:57:58;;;;;;;4.32;0.45;;;;;;;;;;5080153;28;20055;-68
2021/12/19 09:00:24;;;;;;;13.95;0.60;;;;;;;;;;5109465;27;20269;-69
2021/12/19 09:02:53;;;;;;;12.07;0.80;;;;;;;;;;5109298;28;20073;-69
2021/12/19 09:05:20;;;;;;;18.85;0.70;;;;;;;;;;5101517;28;20466;-68
2021/12/19 09:07:46;;;;;;;12.63;0.85;;;;;;;;;;5083395;28;20119;-68
2021/12/19 09:10:12;;;;;;;6.45;0.50;;;;;;;;;;5084755;28;20034;-69
2021/12/19 09:12:38;;;;;;;3.30;0.52;;;;;;;;;;5084126;28;20060;-68
2021/12/19 09:15:05;;;;;;;3.30;0.43;;;;;;;;;;5102321;28;20390;-68
2021/12/19 09:17:31;;;;;;;6.38;0.50;;;;;;;;;;5103097;28;20390;-68
2021/12/19 09:19:57;;;;;;;1.55;0.40;;;;;;;;;;5111907;27;20089;-68
2021/12/19 09:22:23;;;;;;;4.10;0.40;;;;;;;;;;5102209;28;20024;-67
2021/12/19 09:24:49;;;;;;;1.38;0.60;;;;;;;;;;5104402;28;20022;-69
2021/12/19 09:27:16;;;;;;;6.00;0.57;;;;;;;;;;5101104;28;20050;-69
2021/12/19 09:29:42;;;;;;;9.63;0.57;;;;;;;;;;5104150;28;20020;-68
2021/12/19 09:32:08;;;;;;;3.83;0.60;;;;;;;;;;5104175;28;20035;-68
2021/12/19 09:34:34;;;;;;;8.10;0.60;;;;;;;;;;5085396;28;20038;-68
2021/12/19 09:37:01;;;;;;;5.93;0.77;;;;;;;;;;5089667;28;20024;-71
2021/12/19 09:39:27;;;;;;;2.75;0.50;;;;;;;;;;5093164;28;20048;-69
2021/12/19 09:41:59;;;;;;;6.00;0.63;;;;;;;;;;5101632;28;20016;-68
2021/12/19 09:44:25;;;;;;;7.78;0.60;;;;;;;;;;5082623;28;20088;-68
2021/12/19 09:46:52;;;;;;;2.95;0.75;;;;;;;;;;5081878;28;20032;-69
2021/12/19 09:49:19;;;;;;;3.45;0.50;;;;;;;;;;5088312;28;20038;-68
2021/12/19 09:51:45;;;;;;;3.25;0.50;;;;;;;;;;5113265;28;20043;-71
2021/12/19 09:54:12;;;;;;;7.28;0.60;;;;;;;;;;5113569;28;20027;-69
2021/12/19 09:56:39;;;;;;;5.57;0.57;;;;;;;;;;5092891;28;20032;-69
2021/12/19 09:59:10;;;;;;;3.13;0.60;;;;;;;;;;5096843;28;20032;-69
2021/12/19 10:01:36;;;;;;;6.30;0.60;;;;;;;;;;5092292;28;20395;-69
2021/12/19 10:04:02;;;;;;;7.82;0.50;;;;;;;;;;5093056;28;20078;-68
2021/12/19 10:06:29;;;;;;;6.72;0.50;;;;;;;;;;5092946;28;20051;-70
2021/12/19 10:09:07;;;;;;;3.22;0.60;;;;;;;;;;5094389;28;20031;-68
2021/12/19 10:11:46;;;;;;;5.22;0.52;;;;;;;;;;5092629;28;20351;-70
2021/12/19 10:14:32;;;;;;;5.35;0.60;;;;;;;;;;5092720;28;20024;-69
2021/12/19 10:16:59;;;;;;;1.05;0.40;;;;;;;;;;5092735;28;20103;-69
2021/12/19 10:19:43;;;;;;;6.63;0.50;;;;;;;;;;5100224;28;20043;-69
2021/12/19 10:22:25;;;;;;;1.80;0.43;;;;;;;;;;5074505;28;20024;-68
2021/12/19 10:24:51;;;;;;;1.88;0.60;;;;;;;;;;5094654;28;20482;-69
2021/12/19 10:27:36;;;;;;;1.60;0.60;;;;;;;;;;5092523;28;20021;-69
2021/12/19 10:30:09;;;;;;;5.95;0.70;;;;;;;;;;5092302;28;20056;-69
2021/12/19 10:32:35;;;;;;;0.77;0.52;;;;;;;;;;5073956;28;20478;-69
2021/12/19 10:35:15;;;;;;;4.28;0.80;;;;;;;;;;5092398;28;20031;-70
2021/12/19 10:37:41;;;;;;;5.47;0.60;;;;;;;;;;5073569;28;20118;-66
2021/12/19 10:40:08;;;;;;;4.97;0.60;;;;;;;;;;5073788;28;20067;-68
2021/12/19 10:42:55;;;;;;;2.58;0.68;;;;;;;;;;5092117;28;20103;-68
2021/12/19 10:45:30;;;;;;;2.10;0.50;;;;;;;;;;5079084;28;20033;-67
2021/12/19 10:48:14;;;;;;;2.60;0.60;;;;;;;;;;5074518;28;20490;-67
2021/12/19 10:50:45;;;;;;;2.75;0.55;;;;;;;;;;5083653;28;20036;-68
2021/12/19 10:53:12;;;;;;;4.65;0.75;;;;;;;;;;5098089;28;20019;-69
2021/12/19 10:55:40;;;;;;;8.10;0.80;;;;;;;;;;5103570;28;20469;-69
2021/12/19 10:58:18;;;;;;;1.23;0.70;;;;;;;;;;5101001;28;20035;-68
2021/12/19 11:00:53;;;;;;;3.30;0.50;;;;;;;;;;5101796;28;20055;-68
2021/12/19 11:03:33;;;;;;;3.47;0.70;;;;;;;;;;5095388;28;20043;-68
2021/12/19 11:05:59;;;;;;;1.33;0.60;;;;;;;;;;5106530;28;20032;-67
2021/12/19 11:08:30;;;;;;;5.03;0.98;;;;;;;;;;5112474;28;20031;-67
2021/12/19 11:10:57;;;;;;;1.80;0.70;;;;;;;;;;5112631;28;20428;-67
2021/12/19 11:13:23;;;;;;;6.40;0.70;;;;;;;;;;5105695;28;20067;-67
2021/12/19 11:15:49;;;;;;;2.92;0.70;;;;;;;;;;5091176;28;20456;-68
2021/12/19 11:18:15;;;;;;;9.43;0.90;;;;;;;;;;5093383;28;20471;-67
2021/12/19 11:20:42;;;;;;;2.33;0.70;;;;;;;;;;5105357;28;20099;-67
2021/12/19 11:23:08;;;;;;;2.22;0.88;;;;;;;;;;5115318;27;20079;-67
2021/12/19 11:25:35;;;;;;;2.10;0.75;;;;;;;;;;5106472;28;20382;-67
2021/12/19 11:28:02;;;;;;;4.07;1.08;;;;;;;;;;5084256;28;20470;-67
2021/12/19 11:30:28;;;;;;;6.72;0.93;;;;;;;;;;5111276;28;20019;-67
2021/12/19 11:33:12;;;;;;;1.85;0.88;;;;;;;;;;5116297;28;20020;-66
2021/12/19 11:35:42;;;;;;;2.75;0.90;;;;;;;;;;5111635;28;20036;-66
2021/12/19 11:38:10;;;;;;;1.92;0.82;;;;;;;;;;5097007;28;20043;-67
2021/12/19 11:40:37;;;;;;;2.90;0.80;;;;;;;;;;5116271;28;20130;-66
2021/12/19 11:43:07;;;;;;;2.15;0.88;;;;;;;;;;5106877;28;20016;-67
2021/12/19 11:45:38;;;;;;;5.10;0.88;;;;;;;;;;5095684;28;20020;-68
2021/12/19 11:48:17;;;;;;;3.72;0.90;;;;;;;;;;5095381;28;20024;-67
2021/12/19 11:51:00;;;;;;;7.53;0.90;;;;;;;;;;5099434;28;20022;-66
2021/12/19 11:53:26;;;;;;;3.72;0.95;;;;;;;;;;5097486;28;20036;-67
2021/12/19 11:55:52;;;;;;;1.42;1.00;;;;;;;;;;5101827;28;20050;-68
2021/12/19 11:58:23;;;;;;;1.55;0.70;;;;;;;;;;5076498;28;20036;-65
2021/12/19 12:00:50;;;;;;;1.88;0.82;;;;;;;;;;5094766;28;20028;-67
2021/12/19 12:03:21;;;;;;;3.58;0.90;;;;;;;;;;5094715;28;20065;-65
2021/12/19 12:05:51;;;;;;;6.15;1.38;;;;;;;;;;5094761;28;20028;-66
2021/12/19 12:08:21;;;;;;;5.22;1.00;;;;;;;;;;5094699;28;20145;-65
2021/12/19 12:10:55;;;;;;;14.55;0.93;;;;;;;;;;5094684;28;20020;-66
2021/12/19 12:13:30;;;;;;;5.50;0.98;;;;;;;;;;5094698;28;20344;-66
2021/12/19 12:18:46;;;;;;;1.63;0.90;;;;;;;;;;5100422;28;20082;-66
2021/12/19 12:21:19;;;;;;;1.17;0.80;;;;;;;;;;5115405;28;20039;-67
2021/12/19 12:23:52;;;;;;;1.65;0.90;;;;;;;;;;5115078;28;20016;-66
2021/12/19 12:26:27;;;;;;;3.83;0.88;;;;;;;;;;5115253;28;20027;-66
2021/12/19 12:28:53;;;;;;;2.75;0.80;;;;;;;;;;5096730;28;20437;-68
2021/12/19 12:31:19;;;;;;;2.25;1.02;;;;;;;;;;5096701;28;20042;-68
2021/12/19 12:33:45;;;;;;;1.10;0.75;;;;;;;;;;5114502;28;20539;-67
2021/12/19 12:36:11;;;;;;;2.13;0.80;;;;;;;;;;5114981;28;20102;-67
2021/12/19 12:38:37;;;;;;;1.15;0.82;;;;;;;;;;5114815;28;20482;-67
2021/12/19 12:41:10;;;;;;;2.25;1.20;;;;;;;;;;5114959;28;20454;-68
2021/12/19 12:43:37;;;;;;;3.20;0.82;;;;;;;;;;5088431;28;20028;-68
2021/12/19 12:46:07;;;;;;;1.88;0.88;;;;;;;;;;5095121;28;20032;-66
2021/12/19 12:48:34;;;;;;;2.53;0.88;;;;;;;;;;5094159;28;20519;-66
2021/12/19 12:51:01;;;;;;;1.30;0.85;;;;;;;;;;5100644;28;20459;-66
2021/12/19 12:53:35;;;;;;;1.33;0.80;;;;;;;;;;5114460;28;20043;-67
2021/12/19 12:56:03;;;;;;;4.88;1.00;;;;;;;;;;5101451;28;20035;-70
2021/12/19 12:58:34;;;;;;;4.60;1.23;;;;;;;;;;5093943;28;20375;-70
2021/12/19 13:01:13;;;;;;;7.45;1.20;;;;;;;;;;5081686;28;20184;-70
2021/12/19 13:03:39;;;;;;;9.30;1.00;;;;;;;;;;5075581;28;20032;-69
2021/12/19 13:06:05;;;;;;;9.15;0.95;;;;;;;;;;5083755;28;20521;-70
2021/12/19 13:08:31;;;;;;;4.07;0.82;;;;;;;;;;5104730;28;20024;-70
2021/12/19 13:10:58;;;;;;;4.57;0.80;;;;;;;;;;5104612;28;20034;-69
2021/12/19 13:13:27;;;;;;;3.58;1.00;;;;;;;;;;5104171;28;20081;-70
2021/12/19 13:16:03;;;;;;;4.65;1.23;;;;;;;;;;5101976;28;20186;-68
2021/12/19 13:18:29;;;;;;;2.55;0.90;;;;;;;;;;5099081;28;20023;-69
2021/12/19 13:21:01;;;;;;;11.32;1.00;;;;;;;;;;5081337;28;20162;-69
2021/12/19 13:23:27;;;;;;;5.53;0.90;;;;;;;;;;5098618;28;20441;-69
2021/12/19 13:25:53;;;;;;;4.82;0.90;;;;;;;;;;5102693;28;20058;-69
2021/12/19 13:28:22;;;;;;;3.50;1.10;;;;;;;;;;5107101;27;20016;-71
2021/12/19 13:30:50;;;;;;;3.30;0.82;;;;;;;;;;5100242;27;20020;-70
2021/12/19 13:33:18;;;;;;;3.38;1.00;;;;;;;;;;5106495;27;20036;-68
2021/12/19 13:35:46;;;;;;;2.03;0.93;;;;;;;;;;5099732;28;20093;-69
2021/12/19 13:38:12;;;;;;;1.60;1.00;;;;;;;;;;5105459;28;20390;-68
2021/12/19 13:40:40;;;;;;;2.55;1.00;;;;;;;;;;5103496;28;20036;-69
2021/12/19 13:43:08;;;;;;;2.67;0.90;;;;;;;;;;5107713;27;20043;-70
2021/12/19 13:45:39;;;;;;;2.63;0.77;;;;;;;;;;5099610;28;20479;-70
2021/12/19 13:48:06;;;;;;;2.47;0.90;;;;;;;;;;5109633;28;20019;-70
2021/12/19 13:50:36;;;;;;;3.33;0.90;;;;;;;;;;5103527;27;20028;-69
2021/12/19 13:53:02;;;;;;;5.65;1.15;;;;;;;;;;5104275;28;20434;-69
2021/12/19 13:55:28;;;;;;;3.85;1.02;;;;;;;;;;5105381;27;20466;-69
2021/12/19 13:58:04;;;;;;;3.33;1.05;;;;;;;;;;5100090;28;20027;-70
2021/12/19 14:00:33;;;;;;;2.65;0.85;;;;;;;;;;5103548;28;20058;-68
2021/12/19 14:02:59;;;;;;;2.15;1.00;;;;;;;;;;5102083;28;20032;-69
2021/12/19 14:05:34;;;;;;;8.90;0.93;;;;;;;;;;5082087;28;20024;-71
2021/12/19 14:08:00;;;;;;;1.65;0.90;;;;;;;;;;5101418;28;20027;-71
2021/12/19 14:10:26;;;;;;;2.22;1.05;;;;;;;;;;5103654;28;20037;-71
2021/12/19 14:15:28;;;;;;;3.47;0.80;;;;;;;;;;5112079;28;20522;-71
2021/12/19 14:17:53;;;;;;;2.75;1.00;;;;;;;;;;5112678;28;20056;-71
2021/12/19 14:20:32;;;;;;;5.30;0.98;;;;;;;;;;5112953;28;20454;-70
2021/12/19 14:23:14;;;;;;;2.67;0.90;;;;;;;;;;5078811;28;20532;-71
2021/12/19 14:25:40;;;;;;;3.20;1.25;;;;;;;;;;5088237;28;20111;-68
2021/12/19 14:28:16;;;;;;;9.80;1.13;;;;;;;;;;5090931;28;20561;-66
2021/12/19 14:30:54;;;;;;;4.05;1.63;;;;;;;;;;5112941;28;20477;-67
2021/12/19 14:33:38;;;;;;;12.50;1.60;;;;;;;;;;5112966;28;20042;-68
2021/12/19 14:36:05;;;;;;;7.95;1.45;;;;;;;;;;5112750;28;20059;-68
2021/12/19 14:38:31;;;;;;;12.18;1.50;;;;;;;;;;5092602;28;20047;-67
2021/12/19 14:40:59;;;;;;;5.88;1.05;;;;;;;;;;5092599;28;20026;-67
2021/12/19 14:43:28;;;;;;;5.85;1.02;;;;;;;;;;5094447;28;20359;-67
2021/12/19 14:45:58;;;;;;;6.35;0.98;;;;;;;;;;5074268;28;20032;-67
2021/12/19 14:48:31;;;;;;;5.65;1.23;;;;;;;;;;5094066;28;20031;-67
2021/12/19 14:50:59;;;;;;;7.15;1.10;;;;;;;;;;5097682;28;20027;-67
2021/12/19 14:53:29;;;;;;;3.67;1.17;;;;;;;;;;5094566;28;20436;-67
2021/12/19 14:56:01;;;;;;;3.42;1.02;;;;;;;;;;5094691;28;20030;-67
2021/12/19 14:58:28;;;;;;;4.82;1.08;;;;;;;;;;5096379;28;20035;-67
2021/12/19 15:00:57;;;;;;;2.70;1.00;;;;;;;;;;5096356;28;20051;-68
2021/12/19 15:03:23;;;;;;;3.10;0.90;;;;;;;;;;5096568;28;20031;-67
2021/12/19 15:05:49;;;;;;;5.50;1.23;;;;;;;;;;5077966;28;20030;-67
2021/12/19 15:08:17;;;;;;;2.50;1.00;;;;;;;;;;5096162;28;20047;-67
2021/12/19 15:10:47;;;;;;;3.88;1.20;;;;;;;;;;5096448;28;20733;-67
2021/12/19 15:13:13;;;;;;;6.05;1.10;;;;;;;;;;5100167;28;20030;-66
2021/12/19 15:15:39;;;;;;;2.83;0.90;;;;;;;;;;5107605;28;20063;-67
2021/12/19 15:18:05;;;;;;;4.55;1.02;;;;;;;;;;5111948;28;20059;-67
2021/12/19 15:20:31;;;;;;;1.58;0.95;;;;;;;;;;5108651;28;20092;-67
2021/12/19 15:22:59;;;;;;;3.47;1.02;;;;;;;;;;5104102;28;20076;-67
2021/12/19 15:25:25;;;;;;;6.10;0.80;;;;;;;;;;5106275;28;20031;-67
2021/12/19 15:27:51;;;;;;;2.25;0.80;;;;;;;;;;5089872;28;20093;-67
2021/12/19 15:30:17;;;;;;;2.10;1.00;;;;;;;;;;5087496;28;20042;-67
2021/12/19 15:32:43;;;;;;;3.38;0.93;;;;;;;;;;5098789;28;20063;-67
2021/12/19 15:35:10;;;;;;;2.85;0.90;;;;;;;;;;5108518;28;20020;-67
2021/12/19 15:37:36;;;;;;;1.52;0.60;;;;;;;;;;5101432;28;20058;-67
2021/12/19 15:40:02;;;;;;;4.35;1.05;;;;;;;;;;5095717;28;20048;-67
2021/12/19 15:42:28;;;;;;;3.83;1.05;;;;;;;;;;5096051;28;20028;-67
2021/12/19 15:44:54;;;;;;;2.75;1.02;;;;;;;;;;5097937;28;20039;-67
2021/12/19 15:47:20;;;;;;;3.55;1.13;;;;;;;;;;5077664;28;20024;-68
2021/12/19 15:49:46;;;;;;;2.13;0.90;;;;;;;;;;5094440;28;20020;-67
2021/12/19 15:52:12;;;;;;;1.95;0.85;;;;;;;;;;5112126;28;20031;-68
2021/12/19 15:54:39;;;;;;;4.05;1.10;;;;;;;;;;5116184;28;20024;-68
2021/12/19 15:57:05;;;;;;;4.18;1.00;;;;;;;;;;5115764;28;20158;-67
2021/12/19 15:59:32;;;;;;;2.45;0.88;;;;;;;;;;5116010;28;20043;-67
2021/12/19 16:01:59;;;;;;;2.85;0.80;;;;;;;;;;5116025;28;20347;-67
2021/12/19 16:04:25;;;;;;;2.65;1.20;;;;;;;;;;5115996;28;20027;-66
2021/12/19 16:06:51;;;;;;;2.28;1.00;;;;;;;;;;5115091;28;20140;-67